createdAt,value
2023-03-29T00:02:43.357Z,2231.00
2023-03-29T00:06:43.334Z,2226.00
2023-03-29T00:10:43.398Z,2217.00
2023-03-29T00:14:43.445Z,2208.00
2023-03-29T00:18:43.449Z,2196.00
2023-03-29T00:22:43.476Z,2187.00
2023-03-29T00:26:43.438Z,2194.00
2023-03-29T00:30:43.425Z,2187.00
2023-03-29T00:34:43.421Z,2163.00
2023-03-29T00:38:43.402Z,2153.00
2023-03-29T00:42:43.438Z,2154.00
2023-03-29T00:46:44.441Z,2142.00
2023-03-29T00:50:43.369Z,2143.00
2023-03-29T00:54:43.364Z,2150.00
2023-03-29T00:58:43.368Z,2137.00
2023-03-29T01:02:43.506Z,2141.00
2023-03-29T01:06:43.539Z,2122.00
2023-03-29T01:10:43.389Z,2119.00
2023-03-29T01:14:43.404Z,2113.00
2023-03-29T01:18:43.364Z,2098.00
2023-03-29T01:22:43.375Z,2107.00
2023-03-29T01:26:43.321Z,2098.00
2023-03-29T01:30:43.319Z,2098.00
2023-03-29T01:34:43.297Z,2086.00
2023-03-29T01:38:43.273Z,2087.00
2023-03-29T01:42:43.235Z,2060.00
2023-03-29T01:46:43.212Z,2065.00
2023-03-29T01:50:43.211Z,2057.00
2023-03-29T01:54:43.188Z,2064.00
2023-03-29T01:58:43.205Z,2048.00
2023-03-29T02:02:43.216Z,2042.00
2023-03-29T02:06:43.156Z,2043.00
2023-03-29T02:10:43.108Z,2040.00
2023-03-29T02:14:43.109Z,2039.00
2023-03-29T02:18:43.080Z,2020.00
2023-03-29T02:22:43.082Z,1992.00
2023-03-29T02:26:43.071Z,2009.00
2023-03-29T02:30:43.067Z,1998.00
2023-03-29T02:34:43.103Z,2004.00
2023-03-29T02:38:43.069Z,1974.00
2023-03-29T02:42:43.069Z,1979.00
2023-03-29T02:46:43.169Z,1970.00
2023-03-29T02:50:43.119Z,1958.00
2023-03-29T02:54:43.156Z,1977.00
2023-03-29T02:58:43.186Z,1950.00
2023-03-29T03:02:43.251Z,1937.00
2023-03-29T03:06:43.203Z,1938.00
2023-03-29T03:10:43.246Z,1924.00
2023-03-29T03:14:43.276Z,1925.00
2023-03-29T03:18:43.325Z,1915.00
2023-03-29T03:22:43.338Z,1902.00
2023-03-29T03:26:43.409Z,1889.00
2023-03-29T03:30:43.443Z,1884.00
2023-03-29T03:34:43.507Z,1874.00
2023-03-29T03:38:43.525Z,1868.00
2023-03-29T03:42:43.494Z,1872.00
2023-03-29T03:46:43.538Z,1856.00
2023-03-29T03:50:43.575Z,1848.00
2023-03-29T03:54:43.639Z,1838.00
2023-03-29T03:58:43.706Z,1830.00
2023-03-29T04:02:43.805Z,1820.00
2023-03-29T04:06:43.930Z,1833.00
2023-03-29T04:10:43.819Z,1830.00
2023-03-29T04:14:43.888Z,1814.00
2023-03-29T04:18:44.107Z,1795.00
2023-03-29T04:22:43.989Z,1813.00
2023-03-29T04:26:44.064Z,1791.00
2023-03-29T04:30:44.136Z,1803.00
2023-03-29T04:34:44.145Z,1787.00
2023-03-29T04:38:47.327Z,1775.00
2023-03-29T04:42:44.136Z,1777.00
2023-03-29T04:46:44.159Z,1757.00
2023-03-29T04:50:46.010Z,1752.00
2023-03-29T04:54:44.018Z,1748.00
2023-03-29T04:58:43.970Z,1733.00
2023-03-29T05:02:44.034Z,1718.00
2023-03-29T05:06:43.919Z,1741.00
2023-03-29T05:10:43.873Z,1730.00
2023-03-29T05:14:43.917Z,1725.00
2023-03-29T05:18:43.948Z,1726.00
2023-03-29T05:22:44.034Z,1703.00
2023-03-29T05:26:44.004Z,1723.00
2023-03-29T05:30:44.099Z,1710.00
2023-03-29T05:34:44.132Z,1706.00
2023-03-29T05:38:44.183Z,1725.00
2023-03-29T05:42:44.201Z,1736.00
2023-03-29T05:46:44.276Z,1764.00
2023-03-29T05:50:46.209Z,1837.00
2023-03-29T05:54:44.221Z,1904.00
2023-03-29T05:58:44.494Z,1978.00
2023-03-29T06:02:44.511Z,2040.00
2023-03-29T06:06:44.520Z,2093.00
2023-03-29T06:10:44.345Z,2182.00
2023-03-29T06:14:44.308Z,2250.00
2023-03-29T06:18:44.281Z,2338.00
2023-03-29T06:22:44.202Z,2418.00
2023-03-29T06:26:44.212Z,2483.00
2023-03-29T06:30:44.181Z,2257.00
2023-03-29T06:34:44.226Z,1934.00
2023-03-29T06:38:44.107Z,1800.00
2023-03-29T06:42:44.063Z,2032.00
2023-03-29T06:46:44.061Z,2256.00
2023-03-29T06:50:44.026Z,2376.00
2023-03-29T06:54:44.059Z,2439.00
2023-03-29T06:58:43.909Z,2629.00
2023-03-29T07:02:44.094Z,2701.00
2023-03-29T07:06:43.946Z,2772.00
2023-03-29T07:10:44.039Z,2817.00
2023-03-29T07:14:46.193Z,2892.00
2023-03-29T07:18:43.930Z,2944.00
2023-03-29T07:22:44.076Z,3014.00
2023-03-29T07:26:52.206Z,3098.00
2023-03-29T07:35:02.816Z,500.00
2023-03-29T07:39:02.823Z,508.00
2023-03-29T07:43:02.525Z,527.00
2023-03-29T07:47:02.816Z,548.00
2023-03-29T07:51:03.033Z,552.00
2023-03-29T07:55:02.421Z,551.00
2023-03-29T07:59:02.425Z,546.00
2023-03-29T08:03:02.449Z,544.00
2023-03-29T08:07:02.306Z,526.00
2023-03-29T08:11:02.416Z,522.00
2023-03-29T08:15:02.266Z,504.00
2023-03-29T08:19:02.208Z,503.00
2023-03-29T08:23:02.193Z,504.00
2023-03-29T08:27:02.144Z,498.00
2023-03-29T08:31:02.316Z,500.00
2023-03-29T08:35:02.073Z,504.00
2023-03-29T08:39:02.352Z,500.00
2023-03-29T08:43:02.361Z,506.00
2023-03-29T08:47:02.281Z,525.00
2023-03-29T08:51:02.442Z,527.00
2023-03-29T08:55:02.850Z,530.00
2023-03-29T08:59:02.453Z,537.00
2023-03-29T09:03:02.629Z,530.00
2023-03-29T09:07:02.897Z,471.00
2023-03-29T09:11:02.780Z,513.00
2023-03-29T09:15:02.708Z,620.00
2023-03-29T09:19:02.845Z,660.00
2023-03-29T09:23:02.877Z,709.00
2023-03-29T09:27:02.977Z,754.00
2023-03-29T09:31:03.109Z,774.00
2023-03-29T09:35:02.938Z,812.00
2023-03-29T09:39:03.364Z,840.00
2023-03-29T09:43:03.388Z,862.00
2023-03-29T09:47:03.335Z,1154.00
2023-03-29T09:51:03.689Z,981.00
2023-03-29T09:55:03.245Z,1126.00
2023-03-29T09:59:03.229Z,1143.00
2023-03-29T10:03:03.203Z,1150.00
2023-03-29T10:07:03.123Z,1166.00
2023-03-29T10:11:03.343Z,1150.00
2023-03-29T10:15:03.050Z,1175.00
2023-03-29T10:19:03.034Z,1204.00
2023-03-29T10:23:02.963Z,1247.00
2023-03-29T10:27:02.919Z,1281.00
2023-03-29T10:31:03.234Z,1332.00
2023-03-29T10:35:02.909Z,1334.00
2023-03-29T10:39:05.618Z,1381.00
2023-03-29T10:43:02.804Z,1398.00
2023-03-29T10:47:02.775Z,1409.00
2023-03-29T10:51:02.974Z,1432.00
2023-03-29T10:55:02.730Z,1447.00
2023-03-29T10:59:02.679Z,1473.00
2023-03-29T11:03:02.668Z,1489.00
2023-03-29T11:07:02.599Z,1501.00
2023-03-29T11:11:02.776Z,1519.00
2023-03-29T11:15:02.539Z,1543.00
2023-03-29T11:19:02.478Z,1575.00
2023-03-29T11:23:02.445Z,1588.00
2023-03-29T11:27:02.911Z,1617.00
2023-03-29T11:31:03.154Z,1617.00
2023-03-29T11:35:02.712Z,1587.00
2023-03-29T11:39:02.665Z,1555.00
2023-03-29T11:43:02.776Z,1534.00
2023-03-29T11:47:02.682Z,1507.00
2023-03-29T11:51:02.719Z,1462.00
2023-03-29T11:55:02.601Z,1427.00
2023-03-29T11:59:02.527Z,1386.00
2023-03-29T12:03:02.517Z,1312.00
2023-03-29T12:07:02.409Z,1288.00
2023-03-29T12:11:02.571Z,1256.00
2023-03-29T12:15:02.404Z,1218.00
2023-03-29T12:19:02.321Z,1129.00
2023-03-29T12:23:02.307Z,1034.00
2023-03-29T12:27:02.257Z,1072.00
2023-03-29T12:31:02.434Z,1012.00
2023-03-29T12:35:02.241Z,992.00
2023-03-29T12:39:02.181Z,1001.00
2023-03-29T12:43:02.135Z,925.00
2023-03-29T12:47:02.055Z,873.00
2023-03-29T12:51:02.110Z,828.00
2023-03-29T12:55:02.028Z,799.00
2023-03-29T12:59:01.971Z,730.00
2023-03-29T13:03:01.959Z,688.00
2023-03-29T13:07:01.940Z,662.00
2023-03-29T13:11:01.869Z,651.00
2023-03-29T13:15:01.873Z,626.00
2023-03-29T13:19:01.813Z,609.00
2023-03-29T13:23:01.797Z,594.00
2023-03-29T13:27:01.723Z,592.00
2023-03-29T13:31:01.774Z,576.00
2023-03-29T13:35:01.667Z,572.00
2023-03-29T13:39:01.639Z,546.00
2023-03-29T13:43:02.463Z,537.00
2023-03-29T13:47:01.672Z,531.00
2023-03-29T13:51:01.573Z,528.00
2023-03-29T13:55:01.675Z,513.00
2023-03-29T13:59:01.861Z,511.00
2023-03-29T14:03:02.149Z,509.00
2023-03-29T14:07:02.226Z,505.00
2023-03-29T14:11:02.447Z,514.00
2023-03-29T14:15:02.668Z,504.00
2023-03-29T14:19:02.869Z,512.00
2023-03-29T14:23:03.082Z,505.00
2023-03-29T14:27:03.286Z,506.00
2023-03-29T14:31:03.229Z,505.00
2023-03-29T14:35:03.291Z,505.00
2023-03-29T14:39:03.183Z,505.00
2023-03-29T14:43:03.119Z,503.00
2023-03-29T14:47:03.091Z,504.00
2023-03-29T14:51:03.061Z,502.00
2023-03-29T14:55:03.043Z,507.00
2023-03-29T14:59:03.021Z,509.00
2023-03-29T15:03:03.090Z,503.00
2023-03-29T15:07:02.959Z,506.00
2023-03-29T15:11:02.940Z,511.00
2023-03-29T15:15:02.904Z,503.00
2023-03-29T15:19:02.869Z,505.00
2023-03-29T15:23:02.852Z,503.00
2023-03-29T15:27:02.786Z,510.00
2023-03-29T15:31:07.943Z,505.00
2023-03-29T15:35:03.741Z,506.00
2023-03-29T15:39:02.700Z,500.00
2023-03-29T15:43:02.941Z,508.00
2023-03-29T15:47:03.166Z,501.00
2023-03-29T15:51:06.360Z,505.00
2023-03-29T15:55:03.285Z,502.00
2023-03-29T15:59:03.250Z,504.00
2023-03-29T16:03:03.241Z,507.00
2023-03-29T16:07:03.155Z,502.00
2023-03-29T16:11:03.149Z,500.00
2023-03-29T16:15:03.099Z,506.00
2023-03-29T16:19:03.085Z,510.00
2023-03-29T16:23:03.152Z,508.00
2023-03-29T16:27:03.339Z,504.00
2023-03-29T16:31:03.463Z,509.00
2023-03-29T16:35:03.650Z,506.00
2023-03-29T16:39:03.807Z,505.00
2023-03-29T16:43:03.834Z,510.00
2023-03-29T16:47:03.820Z,500.00
2023-03-29T16:51:03.837Z,509.00
2023-03-29T16:55:03.876Z,509.00
2023-03-29T16:59:03.878Z,500.00
2023-03-29T17:03:03.866Z,508.00
2023-03-29T17:07:03.856Z,508.00
2023-03-29T17:11:03.829Z,507.00
2023-03-29T17:15:03.791Z,502.00
2023-03-29T17:19:03.814Z,509.00
2023-03-29T17:23:03.804Z,508.00
2023-03-29T17:27:03.821Z,503.00
2023-03-29T17:31:03.799Z,502.00
2023-03-29T17:35:03.816Z,510.00
2023-03-29T17:39:03.780Z,506.00
2023-03-29T17:43:03.804Z,505.00
2023-03-29T17:47:03.981Z,500.00
2023-03-29T17:51:03.841Z,507.00
2023-03-29T17:55:03.888Z,501.00
2023-03-29T17:59:03.892Z,507.00
2023-03-29T18:03:03.964Z,507.00
2023-03-29T18:07:03.971Z,501.00
2023-03-29T18:11:04.007Z,505.00
2023-03-29T18:15:04.085Z,505.00
2023-03-29T18:19:04.129Z,502.00
2023-03-29T18:23:04.199Z,507.00
2023-03-29T18:27:04.276Z,509.00
2023-03-29T18:31:04.333Z,505.00
2023-03-29T18:35:04.387Z,502.00
2023-03-29T18:39:04.423Z,505.00
2023-03-29T18:43:04.501Z,501.00
2023-03-29T18:47:04.548Z,506.00
2023-03-29T18:51:05.660Z,506.00
2023-03-29T18:55:04.693Z,511.00
2023-03-29T18:59:04.785Z,503.00
2023-03-29T19:03:04.908Z,504.00
2023-03-29T19:07:04.976Z,504.00
2023-03-29T19:11:05.048Z,505.00
2023-03-29T19:15:05.148Z,503.00
2023-03-29T19:19:05.229Z,504.00
2023-03-29T19:23:05.346Z,505.00
2023-03-29T19:27:05.446Z,508.00
2023-03-29T19:31:05.589Z,507.00
2023-03-29T19:35:05.666Z,505.00
2023-03-29T19:39:05.785Z,502.00
2023-03-29T19:43:05.910Z,501.00
2023-03-29T19:47:06.084Z,505.00
2023-03-29T19:51:06.136Z,507.00
2023-03-29T19:55:06.260Z,505.00
2023-03-29T19:59:06.408Z,504.00
2023-03-29T20:03:06.618Z,503.00
2023-03-29T20:07:06.635Z,504.00
2023-03-29T20:11:07.089Z,504.00
2023-03-29T20:15:06.927Z,505.00
2023-03-29T20:19:07.050Z,503.00
2023-03-29T20:23:07.226Z,502.00
2023-03-29T20:27:07.341Z,509.00
2023-03-29T20:31:07.473Z,501.00
2023-03-29T20:35:07.626Z,503.00
2023-03-29T20:39:07.744Z,511.00
2023-03-29T20:43:07.902Z,507.00
2023-03-29T20:47:08.050Z,505.00
2023-03-29T20:51:08.152Z,503.00
2023-03-29T20:55:08.280Z,506.00
2023-03-29T20:59:08.427Z,504.00
2023-03-29T21:03:08.837Z,501.00
2023-03-29T21:07:08.706Z,506.00
2023-03-29T21:11:08.837Z,502.00
2023-03-29T21:15:09.005Z,504.00
2023-03-29T21:19:09.184Z,505.00
2023-03-29T21:23:09.326Z,503.00
2023-03-29T21:27:09.495Z,508.00
2023-03-29T21:31:09.715Z,508.00
2023-03-29T21:35:09.859Z,504.00
2023-03-29T21:39:10.025Z,503.00
2023-03-29T21:43:10.174Z,506.00
2023-03-29T21:47:10.378Z,504.00
2023-03-29T21:51:10.574Z,502.00
2023-03-29T21:55:10.808Z,505.00
2023-03-29T21:59:10.979Z,505.00
2023-03-29T22:03:11.255Z,500.00
2023-03-29T22:07:11.377Z,506.00
2023-03-29T22:11:11.593Z,504.00
2023-03-29T22:15:11.772Z,508.00
2023-03-29T22:19:11.964Z,505.00
2023-03-29T22:23:12.190Z,502.00
2023-03-29T22:27:12.411Z,500.00
2023-03-29T22:31:12.601Z,507.00
2023-03-29T22:35:12.835Z,505.00
2023-03-29T22:39:13.028Z,504.00
2023-03-29T22:43:13.272Z,504.00
2023-03-29T22:47:13.464Z,505.00
2023-03-29T22:51:13.409Z,509.00
2023-03-29T22:55:13.376Z,502.00
2023-03-29T22:59:13.326Z,506.00
2023-03-29T23:03:13.300Z,510.00
2023-03-29T23:07:13.260Z,508.00
2023-03-29T23:11:13.273Z,503.00
2023-03-29T23:15:13.199Z,505.00
2023-03-29T23:19:13.182Z,509.00
2023-03-29T23:23:13.121Z,503.00
2023-03-29T23:27:13.088Z,505.00
2023-03-29T23:31:13.057Z,509.00
2023-03-29T23:35:13.005Z,510.00
2023-03-29T23:39:12.958Z,508.00
2023-03-29T23:43:12.921Z,506.00
2023-03-29T23:47:12.902Z,501.00
2023-03-29T23:51:12.836Z,512.00
2023-03-29T23:55:12.842Z,506.00
2023-03-29T23:59:12.767Z,505.00
